sensor_id;sensor_type;location;lat;lon;timestamp;pressure;altitude;pressure_sealevel;temperature;humidity
20444;BME280;10381;53.730;10.010;2023-11-19T00:02:14;99916.84;;;4.23;100.00
20444;BME280;10381;53.730;10.010;2023-11-19T00:06:15;99903.00;;;4.33;100.00
20444;BME280;10381;53.730;10.010;2023-11-19T00:10:17;99894.31;;;4.32;100.00
20444;BME280;10381;53.730;10.010;2023-11-19T00:14:20;99877.63;;;4.33;100.00
20444;BME280;10381;53.730;10.010;2023-11-19T00:18:21;99861.53;;;4.38;100.00
20444;BME280;10381;53.730;10.010;2023-11-19T00:22:22;99834.72;;;4.34;100.00
20444;BME280;10381;53.730;10.010;2023-11-19T00:26:22;99818.16;;;4.34;100.00
20444;BME280;10381;53.730;10.010;2023-11-19T00:30:22;99796.91;;;4.37;100.00
20444;BME280;10381;53.730;10.010;2023-11-19T00:34:23;99777.38;;;4.41;100.00
20444;BME280;10381;53.730;10.010;2023-11-19T00:38:23;99756.41;;;4.41;100.00
20444;BME280;10381;53.730;10.010;2023-11-19T00:42:23;99745.56;;;4.34;100.00
20444;BME280;10381;53.730;10.010;2023-11-19T00:46:24;99736.72;;;4.35;100.00
20444;BME280;10381;53.730;10.010;2023-11-19T00:50:25;99724.09;;;4.40;100.00
20444;BME280;10381;53.730;10.010;2023-11-19T00:54:25;99711.81;;;4.41;100.00
20444;BME280;10381;53.730;10.010;2023-11-19T00:58:26;99694.63;;;4.48;100.00
20444;BME280;10381;53.730;10.010;2023-11-19T01:02:27;99688.69;;;4.46;100.00
20444;BME280;10381;53.730;10.010;2023-11-19T01:06:30;99669.72;;;4.42;100.00
20444;BME280;10381;53.730;10.010;2023-11-19T01:10:31;99663.16;;;4.48;100.00
20444;BME280;10381;53.730;10.010;2023-11-19T01:14:31;99640.75;;;4.44;100.00
20444;BME280;10381;53.730;10.010;2023-11-19T01:18:32;99626.81;;;4.43;100.00
20444;BME280;10381;53.730;10.010;2023-11-19T01:22:32;99614.28;;;4.47;100.00
20444;BME280;10381;53.730;10.010;2023-11-19T01:26:33;99600.22;;;4.48;100.00
20444;BME280;10381;53.730;10.010;2023-11-19T01:30:33;99588.66;;;4.51;100.00
20444;BME280;10381;53.730;10.010;2023-11-19T01:34:33;99567.22;;;4.45;100.00
20444;BME280;10381;53.730;10.010;2023-11-19T01:38:34;99557.03;;;4.52;100.00
20444;BME280;10381;53.730;10.010;2023-11-19T01:42:38;99536.75;;;4.54;100.00
20444;BME280;10381;53.730;10.010;2023-11-19T01:46:40;99523.53;;;4.56;100.00
20444;BME280;10381;53.730;10.010;2023-11-19T01:50:42;99508.16;;;4.51;100.00
20444;BME280;10381;53.730;10.010;2023-11-19T01:54:42;99499.09;;;4.55;100.00
20444;BME280;10381;53.730;10.010;2023-11-19T01:58:43;99489.16;;;4.59;100.00
20444;BME280;10381;53.730;10.010;2023-11-19T02:02:46;99490.13;;;4.58;100.00
20444;BME280;10381;53.730;10.010;2023-11-19T02:06:48;99470.34;;;4.54;100.00
20444;BME280;10381;53.730;10.010;2023-11-19T02:10:50;99452.59;;;4.57;100.00
20444;BME280;10381;53.730;10.010;2023-11-19T02:14:51;99442.53;;;4.62;100.00
20444;BME280;10381;53.730;10.010;2023-11-19T02:18:52;99427.88;;;4.60;100.00
20444;BME280;10381;53.730;10.010;2023-11-19T02:22:52;99417.25;;;4.61;100.00
20444;BME280;10381;53.730;10.010;2023-11-19T02:27:01;99409.63;;;4.58;100.00
20444;BME280;10381;53.730;10.010;2023-11-19T02:31:02;99396.41;;;4.60;100.00
20444;BME280;10381;53.730;10.010;2023-11-19T02:35:05;99373.75;;;4.59;100.00
20444;BME280;10381;53.730;10.010;2023-11-19T02:39:08;99359.28;;;4.64;100.00
20444;BME280;10381;53.730;10.010;2023-11-19T02:43:11;99355.69;;;4.65;100.00
20444;BME280;10381;53.730;10.010;2023-11-19T02:47:13;99341.47;;;4.68;100.00
20444;BME280;10381;53.730;10.010;2023-11-19T02:51:13;99323.00;;;4.69;100.00
20444;BME280;10381;53.730;10.010;2023-11-19T02:55:13;99306.97;;;4.73;100.00
20444;BME280;10381;53.730;10.010;2023-11-19T02:59:14;99290.81;;;4.67;100.00
20444;BME280;10381;53.730;10.010;2023-11-19T03:03:27;99285.16;;;4.72;100.00
20444;BME280;10381;53.730;10.010;2023-11-19T03:07:38;99262.66;;;4.69;100.00
20444;BME280;10381;53.730;10.010;2023-11-19T03:11:38;99248.28;;;4.74;100.00
20444;BME280;10381;53.730;10.010;2023-11-19T03:15:39;99231.72;;;4.83;100.00
20444;BME280;10381;53.730;10.010;2023-11-19T03:19:39;99231.19;;;4.79;100.00
20444;BME280;10381;53.730;10.010;2023-11-19T03:23:39;99226.88;;;4.88;100.00
20444;BME280;10381;53.730;10.010;2023-11-19T03:27:40;99216.38;;;4.88;100.00
20444;BME280;10381;53.730;10.010;2023-11-19T03:31:42;99202.16;;;4.90;100.00
20444;BME280;10381;53.730;10.010;2023-11-19T03:35:43;99192.22;;;4.94;100.00
20444;BME280;10381;53.730;10.010;2023-11-19T03:39:43;99191.66;;;5.00;100.00
20444;BME280;10381;53.730;10.010;2023-11-19T03:43:43;99183.53;;;5.03;100.00
20444;BME280;10381;53.730;10.010;2023-11-19T03:47:43;99172.88;;;5.05;100.00
20444;BME280;10381;53.730;10.010;2023-11-19T03:51:44;99168.72;;;5.12;100.00
20444;BME280;10381;53.730;10.010;2023-11-19T03:55:44;99153.66;;;5.14;100.00
20444;BME280;10381;53.730;10.010;2023-11-19T03:59:44;99150.78;;;5.17;100.00
20444;BME280;10381;53.730;10.010;2023-11-19T04:03:44;99146.75;;;5.23;100.00
20444;BME280;10381;53.730;10.010;2023-11-19T04:07:45;99131.81;;;5.23;100.00
20444;BME280;10381;53.730;10.010;2023-11-19T04:11:45;99123.13;;;5.23;100.00
20444;BME280;10381;53.730;10.010;2023-11-19T04:15:47;99143.53;;;5.29;100.00
20444;BME280;10381;53.730;10.010;2023-11-19T04:19:47;99139.53;;;5.34;100.00
20444;BME280;10381;53.730;10.010;2023-11-19T04:23:47;99105.09;;;5.38;100.00
20444;BME280;10381;53.730;10.010;2023-11-19T04:27:49;99131.91;;;5.41;100.00
20444;BME280;10381;53.730;10.010;2023-11-19T04:31:49;99113.63;;;5.49;100.00
20444;BME280;10381;53.730;10.010;2023-11-19T04:35:50;99093.44;;;5.50;100.00
20444;BME280;10381;53.730;10.010;2023-11-19T04:39:50;99089.56;;;5.54;100.00
20444;BME280;10381;53.730;10.010;2023-11-19T04:43:51;99095.34;;;5.58;100.00
20444;BME280;10381;53.730;10.010;2023-11-19T04:47:51;99096.03;;;5.60;100.00
20444;BME280;10381;53.730;10.010;2023-11-19T04:51:51;99091.16;;;5.65;100.00
20444;BME280;10381;53.730;10.010;2023-11-19T04:55:52;99101.97;;;5.62;100.00
20444;BME280;10381;53.730;10.010;2023-11-19T04:59:52;99099.03;;;5.65;100.00
20444;BME280;10381;53.730;10.010;2023-11-19T05:03:52;99088.59;;;5.83;100.00
20444;BME280;10381;53.730;10.010;2023-11-19T05:07:52;99078.78;;;5.85;100.00
20444;BME280;10381;53.730;10.010;2023-11-19T05:11:53;99088.00;;;5.89;100.00
20444;BME280;10381;53.730;10.010;2023-11-19T05:15:54;99122.44;;;5.95;100.00
20444;BME280;10381;53.730;10.010;2023-11-19T05:19:54;99104.34;;;6.10;100.00
20444;BME280;10381;53.730;10.010;2023-11-19T05:23:54;99097.28;;;6.11;100.00
20444;BME280;10381;53.730;10.010;2023-11-19T05:27:54;99089.06;;;6.24;100.00
20444;BME280;10381;53.730;10.010;2023-11-19T05:31:55;99077.91;;;6.30;100.00
20444;BME280;10381;53.730;10.010;2023-11-19T05:35:55;99061.63;;;6.44;100.00
20444;BME280;10381;53.730;10.010;2023-11-19T05:39:57;99064.78;;;6.48;100.00
20444;BME280;10381;53.730;10.010;2023-11-19T05:43:57;99065.75;;;6.47;100.00
20444;BME280;10381;53.730;10.010;2023-11-19T05:47:57;99050.50;;;6.50;100.00
20444;BME280;10381;53.730;10.010;2023-11-19T05:51:57;99054.00;;;6.59;100.00
20444;BME280;10381;53.730;10.010;2023-11-19T05:55:58;99042.06;;;6.65;100.00
20444;BME280;10381;53.730;10.010;2023-11-19T05:59:58;99028.72;;;6.66;100.00
20444;BME280;10381;53.730;10.010;2023-11-19T06:03:59;99030.41;;;6.67;100.00
20444;BME280;10381;53.730;10.010;2023-11-19T06:08:01;99025.75;;;6.87;100.00
20444;BME280;10381;53.730;10.010;2023-11-19T06:12:01;99004.13;;;7.01;100.00
20444;BME280;10381;53.730;10.010;2023-11-19T06:16:06;98990.22;;;7.17;100.00
20444;BME280;10381;53.730;10.010;2023-11-19T06:20:07;98986.13;;;7.23;100.00
20444;BME280;10381;53.730;10.010;2023-11-19T06:24:08;98968.56;;;7.40;100.00
20444;BME280;10381;53.730;10.010;2023-11-19T06:28:09;98951.22;;;7.80;100.00
20444;BME280;10381;53.730;10.010;2023-11-19T06:32:09;98928.13;;;8.15;100.00
20444;BME280;10381;53.730;10.010;2023-11-19T06:36:10;98907.03;;;8.31;100.00
20444;BME280;10381;53.730;10.010;2023-11-19T06:40:10;98887.66;;;8.71;100.00
20444;BME280;10381;53.730;10.010;2023-11-19T06:44:12;98874.94;;;8.75;100.00
20444;BME280;10381;53.730;10.010;2023-11-19T06:48:12;98863.81;;;8.96;100.00
20444;BME280;10381;53.730;10.010;2023-11-19T06:52:12;98835.41;;;9.21;100.00
20444;BME280;10381;53.730;10.010;2023-11-19T06:56:23;98833.09;;;9.26;100.00
20444;BME280;10381;53.730;10.010;2023-11-19T07:00:23;98821.06;;;9.47;100.00
20444;BME280;10381;53.730;10.010;2023-11-19T07:04:24;98823.03;;;9.45;100.00
20444;BME280;10381;53.730;10.010;2023-11-19T07:08:24;98819.31;;;9.62;100.00
20444;BME280;10381;53.730;10.010;2023-11-19T07:12:24;98828.44;;;9.74;100.00
20444;BME280;10381;53.730;10.010;2023-11-19T07:16:26;98830.13;;;9.90;100.00
20444;BME280;10381;53.730;10.010;2023-11-19T07:20:27;98832.59;;;9.92;100.00
20444;BME280;10381;53.730;10.010;2023-11-19T07:24:28;98846.56;;;10.00;100.00
20444;BME280;10381;53.730;10.010;2023-11-19T07:28:28;98881.53;;;10.11;100.00
20444;BME280;10381;53.730;10.010;2023-11-19T07:32:29;98892.56;;;10.14;100.00
20444;BME280;10381;53.730;10.010;2023-11-19T07:36:29;98913.75;;;10.14;100.00
20444;BME280;10381;53.730;10.010;2023-11-19T07:40:29;98918.13;;;10.22;100.00
20444;BME280;10381;53.730;10.010;2023-11-19T07:44:29;98935.13;;;10.28;100.00
20444;BME280;10381;53.730;10.010;2023-11-19T07:48:30;98937.09;;;10.34;100.00
20444;BME280;10381;53.730;10.010;2023-11-19T07:52:30;98943.94;;;10.43;100.00
20444;BME280;10381;53.730;10.010;2023-11-19T07:56:32;98941.84;;;10.38;100.00
20444;BME280;10381;53.730;10.010;2023-11-19T08:00:34;98944.06;;;10.50;100.00
20444;BME280;10381;53.730;10.010;2023-11-19T08:04:34;98853.78;;;10.59;100.00
20444;BME280;10381;53.730;10.010;2023-11-19T08:08:34;98841.53;;;10.58;100.00
20444;BME280;10381;53.730;10.010;2023-11-19T08:12:35;98875.13;;;10.58;100.00
20444;BME280;10381;53.730;10.010;2023-11-19T08:16:39;98896.41;;;10.64;100.00
20444;BME280;10381;53.730;10.010;2023-11-19T08:20:39;98947.81;;;10.55;100.00
20444;BME280;10381;53.730;10.010;2023-11-19T08:24:41;98996.13;;;10.57;100.00
20444;BME280;10381;53.730;10.010;2023-11-19T08:28:41;99046.53;;;10.64;100.00
20444;BME280;10381;53.730;10.010;2023-11-19T08:32:41;99108.44;;;10.63;100.00
20444;BME280;10381;53.730;10.010;2023-11-19T08:36:42;99159.25;;;10.66;100.00
20444;BME280;10381;53.730;10.010;2023-11-19T08:40:42;99210.88;;;10.71;100.00
20444;BME280;10381;53.730;10.010;2023-11-19T08:44:43;99254.88;;;10.72;100.00
20444;BME280;10381;53.730;10.010;2023-11-19T08:48:44;99315.16;;;10.70;100.00
20444;BME280;10381;53.730;10.010;2023-11-19T08:52:44;99364.31;;;10.72;100.00
20444;BME280;10381;53.730;10.010;2023-11-19T08:56:45;99372.25;;;10.72;100.00
20444;BME280;10381;53.730;10.010;2023-11-19T09:00:45;99410.66;;;10.76;100.00
20444;BME280;10381;53.730;10.010;2023-11-19T09:04:45;99429.69;;;10.80;100.00
20444;BME280;10381;53.730;10.010;2023-11-19T09:08:45;99477.88;;;10.83;100.00
20444;BME280;10381;53.730;10.010;2023-11-19T09:12:46;99529.38;;;10.81;100.00
20444;BME280;10381;53.730;10.010;2023-11-19T09:16:46;99535.50;;;10.81;100.00
20444;BME280;10381;53.730;10.010;2023-11-19T09:20:46;99564.28;;;10.93;100.00
20444;BME280;10381;53.730;10.010;2023-11-19T09:24:46;99594.59;;;10.90;100.00
20444;BME280;10381;53.730;10.010;2023-11-19T09:28:48;99617.78;;;10.80;100.00
20444;BME280;10381;53.730;10.010;2023-11-19T09:32:48;99618.63;;;10.80;100.00
20444;BME280;10381;53.730;10.010;2023-11-19T09:36:48;99616.47;;;10.92;100.00
20444;BME280;10381;53.730;10.010;2023-11-19T09:40:49;99637.00;;;10.90;100.00
20444;BME280;10381;53.730;10.010;2023-11-19T09:44:49;99651.91;;;10.91;100.00
20444;BME280;10381;53.730;10.010;2023-11-19T09:48:52;99666.16;;;10.90;100.00
20444;BME280;10381;53.730;10.010;2023-11-19T09:52:54;99677.41;;;10.92;100.00
20444;BME280;10381;53.730;10.010;2023-11-19T09:56:57;99685.69;;;10.81;100.00
20444;BME280;10381;53.730;10.010;2023-11-19T10:01:03;99675.75;;;10.83;100.00
20444;BME280;10381;53.730;10.010;2023-11-19T10:05:07;99663.00;;;10.95;100.00
20444;BME280;10381;53.730;10.010;2023-11-19T10:09:07;99697.78;;;11.08;100.00
20444;BME280;10381;53.730;10.010;2023-11-19T10:13:08;99718.84;;;11.09;100.00
20444;BME280;10381;53.730;10.010;2023-11-19T10:17:08;99750.63;;;11.18;100.00
20444;BME280;10381;53.730;10.010;2023-11-19T10:21:12;99778.97;;;11.17;100.00
20444;BME280;10381;53.730;10.010;2023-11-19T10:25:27;99799.53;;;11.23;100.00
20444;BME280;10381;53.730;10.010;2023-11-19T10:29:29;99826.56;;;11.51;100.00
20444;BME280;10381;53.730;10.010;2023-11-19T10:33:29;99851.59;;;11.49;100.00
20444;BME280;10381;53.730;10.010;2023-11-19T10:37:30;99862.16;;;11.16;100.00
20444;BME280;10381;53.730;10.010;2023-11-19T10:41:32;99825.00;;;11.08;100.00
20444;BME280;10381;53.730;10.010;2023-11-19T10:45:33;99830.00;;;11.19;100.00
20444;BME280;10381;53.730;10.010;2023-11-19T10:49:33;99836.81;;;11.14;100.00
20444;BME280;10381;53.730;10.010;2023-11-19T10:53:37;99842.41;;;11.11;100.00
20444;BME280;10381;53.730;10.010;2023-11-19T10:57:41;99817.47;;;10.79;100.00
20444;BME280;10381;53.730;10.010;2023-11-19T11:01:45;99771.44;;;10.72;100.00
20444;BME280;10381;53.730;10.010;2023-11-19T11:05:49;99745.75;;;10.72;100.00
20444;BME280;10381;53.730;10.010;2023-11-19T11:09:51;99751.59;;;10.84;100.00
20444;BME280;10381;53.730;10.010;2023-11-19T11:13:53;99759.72;;;10.99;100.00
20444;BME280;10381;53.730;10.010;2023-11-19T11:17:59;99774.78;;;10.90;100.00
20444;BME280;10381;53.730;10.010;2023-11-19T11:22:02;99777.09;;;10.85;100.00
20444;BME280;10381;53.730;10.010;2023-11-19T11:26:28;99776.63;;;10.90;100.00
20444;BME280;10381;53.730;10.010;2023-11-19T11:35:27;99786.56;;;10.96;100.00
20444;BME280;10381;53.730;10.010;2023-11-19T11:39:32;99760.69;;;10.73;100.00
20444;BME280;10381;53.730;10.010;2023-11-19T11:43:49;99729.06;;;10.96;100.00
20444;BME280;10381;53.730;10.010;2023-11-19T11:51:57;99743.97;;;10.89;100.00
20444;BME280;10381;53.730;10.010;2023-11-19T11:55:58;99750.44;;;10.78;100.00
20444;BME280;10381;53.730;10.010;2023-11-19T12:00:02;99768.50;;;10.83;100.00
20444;BME280;10381;53.730;10.010;2023-11-19T12:04:05;99784.72;;;10.88;100.00
20444;BME280;10381;53.730;10.010;2023-11-19T12:08:06;99804.25;;;10.87;100.00
20444;BME280;10381;53.730;10.010;2023-11-19T12:12:26;99827.81;;;10.98;100.00
20444;BME280;10381;53.730;10.010;2023-11-19T12:16:27;99818.22;;;10.97;100.00
20444;BME280;10381;53.730;10.010;2023-11-19T12:20:33;99809.75;;;10.94;100.00
20444;BME280;10381;53.730;10.010;2023-11-19T12:24:35;99783.41;;;10.92;100.00
20444;BME280;10381;53.730;10.010;2023-11-19T12:28:35;99783.22;;;10.85;100.00
20444;BME280;10381;53.730;10.010;2023-11-19T12:32:42;99760.53;;;10.83;100.00
20444;BME280;10381;53.730;10.010;2023-11-19T12:36:43;99746.81;;;10.87;100.00
20444;BME280;10381;53.730;10.010;2023-11-19T12:40:44;99741.66;;;10.94;100.00
20444;BME280;10381;53.730;10.010;2023-11-19T12:44:55;99760.06;;;11.04;100.00
20444;BME280;10381;53.730;10.010;2023-11-19T12:48:56;99775.47;;;11.08;100.00
20444;BME280;10381;53.730;10.010;2023-11-19T12:52:57;99788.75;;;11.25;100.00
20444;BME280;10381;53.730;10.010;2023-11-19T12:56:57;99794.38;;;11.30;100.00
20444;BME280;10381;53.730;10.010;2023-11-19T13:01:06;99825.56;;;11.36;100.00
20444;BME280;10381;53.730;10.010;2023-11-19T13:05:29;99854.06;;;11.34;100.00
20444;BME280;10381;53.730;10.010;2023-11-19T13:09:31;99863.50;;;11.28;100.00
20444;BME280;10381;53.730;10.010;2023-11-19T13:13:32;99865.78;;;11.15;100.00
20444;BME280;10381;53.730;10.010;2023-11-19T13:17:32;99854.69;;;11.12;100.00
20444;BME280;10381;53.730;10.010;2023-11-19T13:21:32;99848.03;;;11.07;100.00
20444;BME280;10381;53.730;10.010;2023-11-19T13:25:33;99834.50;;;11.19;100.00
20444;BME280;10381;53.730;10.010;2023-11-19T13:29:33;99837.44;;;11.07;100.00
20444;BME280;10381;53.730;10.010;2023-11-19T13:33:33;99826.97;;;10.98;100.00
20444;BME280;10381;53.730;10.010;2023-11-19T13:37:34;99823.53;;;11.05;100.00
20444;BME280;10381;53.730;10.010;2023-11-19T13:41:35;99827.47;;;11.01;100.00
20444;BME280;10381;53.730;10.010;2023-11-19T13:45:36;99825.50;;;11.03;100.00
20444;BME280;10381;53.730;10.010;2023-11-19T13:49:37;99821.19;;;11.02;100.00
20444;BME280;10381;53.730;10.010;2023-11-19T13:53:37;99806.28;;;11.01;100.00
20444;BME280;10381;53.730;10.010;2023-11-19T13:57:39;99804.25;;;10.87;100.00
20444;BME280;10381;53.730;10.010;2023-11-19T14:01:50;99795.47;;;10.78;100.00
20444;BME280;10381;53.730;10.010;2023-11-19T14:05:50;99778.88;;;10.68;100.00
20444;BME280;10381;53.730;10.010;2023-11-19T14:09:52;99769.06;;;10.60;100.00
20444;BME280;10381;53.730;10.010;2023-11-19T14:13:52;99752.69;;;10.57;100.00
20444;BME280;10381;53.730;10.010;2023-11-19T14:17:53;99755.13;;;10.50;100.00
20444;BME280;10381;53.730;10.010;2023-11-19T14:21:53;99734.91;;;10.41;100.00
20444;BME280;10381;53.730;10.010;2023-11-19T14:25:53;99723.31;;;10.34;100.00
20444;BME280;10381;53.730;10.010;2023-11-19T14:29:53;99693.59;;;10.22;100.00
20444;BME280;10381;53.730;10.010;2023-11-19T14:33:54;99676.91;;;10.21;100.00
20444;BME280;10381;53.730;10.010;2023-11-19T14:37:54;99669.09;;;10.12;100.00
20444;BME280;10381;53.730;10.010;2023-11-19T14:41:54;99645.59;;;10.09;100.00
20444;BME280;10381;53.730;10.010;2023-11-19T14:45:58;99636.19;;;10.06;100.00
20444;BME280;10381;53.730;10.010;2023-11-19T14:49:58;99615.16;;;9.96;100.00
20444;BME280;10381;53.730;10.010;2023-11-19T14:53:58;99607.00;;;9.81;100.00
20444;BME280;10381;53.730;10.010;2023-11-19T14:57:59;99628.91;;;9.66;100.00
20444;BME280;10381;53.730;10.010;2023-11-19T15:02:00;99623.50;;;9.41;100.00
20444;BME280;10381;53.730;10.010;2023-11-19T15:06:01;99623.03;;;9.20;100.00
20444;BME280;10381;53.730;10.010;2023-11-19T15:10:01;99632.97;;;9.00;100.00
20444;BME280;10381;53.730;10.010;2023-11-19T15:14:01;99620.91;;;8.79;100.00
20444;BME280;10381;53.730;10.010;2023-11-19T15:18:03;99610.75;;;8.66;100.00
20444;BME280;10381;53.730;10.010;2023-11-19T15:22:03;99603.72;;;8.57;100.00
20444;BME280;10381;53.730;10.010;2023-11-19T15:26:05;99591.97;;;8.51;100.00
20444;BME280;10381;53.730;10.010;2023-11-19T15:30:08;99577.09;;;8.50;100.00
20444;BME280;10381;53.730;10.010;2023-11-19T15:34:09;99560.13;;;8.53;100.00
20444;BME280;10381;53.730;10.010;2023-11-19T15:38:10;99548.38;;;8.47;100.00
20444;BME280;10381;53.730;10.010;2023-11-19T15:42:11;99530.50;;;8.41;100.00
20444;BME280;10381;53.730;10.010;2023-11-19T15:46:13;99533.41;;;8.38;100.00
20444;BME280;10381;53.730;10.010;2023-11-19T15:50:13;99518.97;;;8.42;100.00
20444;BME280;10381;53.730;10.010;2023-11-19T15:54:13;99507.75;;;8.40;100.00
20444;BME280;10381;53.730;10.010;2023-11-19T15:58:14;99503.28;;;8.41;100.00
20444;BME280;10381;53.730;10.010;2023-11-19T16:02:14;99488.44;;;8.40;100.00
20444;BME280;10381;53.730;10.010;2023-11-19T16:06:15;99482.84;;;8.43;100.00
20444;BME280;10381;53.730;10.010;2023-11-19T16:10:15;99470.69;;;8.50;100.00
20444;BME280;10381;53.730;10.010;2023-11-19T16:14:19;99436.28;;;8.60;100.00
20444;BME280;10381;53.730;10.010;2023-11-19T16:18:19;99425.41;;;8.63;100.00
20444;BME280;10381;53.730;10.010;2023-11-19T16:22:20;99420.66;;;8.66;100.00
20444;BME280;10381;53.730;10.010;2023-11-19T16:26:20;99412.91;;;8.73;100.00
20444;BME280;10381;53.730;10.010;2023-11-19T16:30:20;99419.19;;;8.80;100.00
20444;BME280;10381;53.730;10.010;2023-11-19T16:34:22;99415.63;;;8.89;100.00
20444;BME280;10381;53.730;10.010;2023-11-19T16:38:22;99394.84;;;8.94;100.00
20444;BME280;10381;53.730;10.010;2023-11-19T16:42:23;99394.06;;;9.02;100.00
20444;BME280;10381;53.730;10.010;2023-11-19T16:46:23;99391.63;;;9.17;100.00
20444;BME280;10381;53.730;10.010;2023-11-19T16:50:23;99387.66;;;9.21;100.00
20444;BME280;10381;53.730;10.010;2023-11-19T16:54:23;99366.88;;;9.26;100.00
20444;BME280;10381;53.730;10.010;2023-11-19T16:58:24;99347.53;;;9.26;100.00
20444;BME280;10381;53.730;10.010;2023-11-19T17:02:24;99348.88;;;9.30;100.00
20444;BME280;10381;53.730;10.010;2023-11-19T17:06:30;99352.19;;;9.32;100.00
20444;BME280;10381;53.730;10.010;2023-11-19T17:10:30;99331.88;;;9.32;100.00
20444;BME280;10381;53.730;10.010;2023-11-19T17:14:30;99335.81;;;9.28;100.00
20444;BME280;10381;53.730;10.010;2023-11-19T17:18:30;99335.16;;;9.18;100.00
20444;BME280;10381;53.730;10.010;2023-11-19T17:22:35;99319.63;;;9.15;100.00
20444;BME280;10381;53.730;10.010;2023-11-19T17:26:36;99332.16;;;9.05;100.00
20444;BME280;10381;53.730;10.010;2023-11-19T17:30:37;99320.91;;;9.03;100.00
20444;BME280;10381;53.730;10.010;2023-11-19T17:34:38;99319.25;;;9.02;100.00
20444;BME280;10381;53.730;10.010;2023-11-19T17:38:38;99317.31;;;9.12;100.00
20444;BME280;10381;53.730;10.010;2023-11-19T17:42:39;99318.63;;;9.08;100.00
20444;BME280;10381;53.730;10.010;2023-11-19T17:46:39;99323.09;;;9.07;100.00
20444;BME280;10381;53.730;10.010;2023-11-19T17:50:41;99334.13;;;9.03;100.00
20444;BME280;10381;53.730;10.010;2023-11-19T17:54:41;99341.00;;;8.87;100.00
20444;BME280;10381;53.730;10.010;2023-11-19T17:58:42;99345.59;;;8.77;100.00
20444;BME280;10381;53.730;10.010;2023-11-19T18:02:43;99348.50;;;8.66;100.00
20444;BME280;10381;53.730;10.010;2023-11-19T18:06:52;99341.03;;;8.53;100.00
20444;BME280;10381;53.730;10.010;2023-11-19T18:10:52;99352.16;;;8.65;100.00
20444;BME280;10381;53.730;10.010;2023-11-19T18:14:53;99358.59;;;8.70;100.00
20444;BME280;10381;53.730;10.010;2023-11-19T18:18:54;99353.63;;;8.67;100.00
20444;BME280;10381;53.730;10.010;2023-11-19T18:22:54;99351.47;;;8.63;100.00
20444;BME280;10381;53.730;10.010;2023-11-19T18:26:55;99360.06;;;8.65;100.00
20444;BME280;10381;53.730;10.010;2023-11-19T18:30:55;99365.03;;;8.68;100.00
20444;BME280;10381;53.730;10.010;2023-11-19T18:34:57;99362.38;;;8.68;100.00
20444;BME280;10381;53.730;10.010;2023-11-19T18:38:58;99350.19;;;8.67;100.00
20444;BME280;10381;53.730;10.010;2023-11-19T18:42:58;99351.81;;;8.68;100.00
20444;BME280;10381;53.730;10.010;2023-11-19T18:46:58;99352.28;;;8.63;100.00
20444;BME280;10381;53.730;10.010;2023-11-19T18:50:59;99346.88;;;8.65;100.00
20444;BME280;10381;53.730;10.010;2023-11-19T18:55:01;99347.22;;;8.70;100.00
20444;BME280;10381;53.730;10.010;2023-11-19T18:59:03;99346.53;;;8.68;100.00
20444;BME280;10381;53.730;10.010;2023-11-19T19:03:07;99337.66;;;8.69;100.00
20444;BME280;10381;53.730;10.010;2023-11-19T19:07:10;99329.75;;;8.77;100.00
20444;BME280;10381;53.730;10.010;2023-11-19T19:11:10;99319.84;;;8.79;100.00
20444;BME280;10381;53.730;10.010;2023-11-19T19:15:11;99328.13;;;8.84;100.00
20444;BME280;10381;53.730;10.010;2023-11-19T19:19:11;99317.56;;;8.84;100.00
20444;BME280;10381;53.730;10.010;2023-11-19T19:23:12;99315.59;;;8.86;100.00
20444;BME280;10381;53.730;10.010;2023-11-19T19:27:12;99304.06;;;8.95;100.00
20444;BME280;10381;53.730;10.010;2023-11-19T19:31:12;99290.19;;;8.93;100.00
20444;BME280;10381;53.730;10.010;2023-11-19T19:35:17;99273.72;;;9.00;100.00
20444;BME280;10381;53.730;10.010;2023-11-19T19:39:17;99255.38;;;8.98;100.00
20444;BME280;10381;53.730;10.010;2023-11-19T19:43:18;99249.25;;;8.98;100.00
20444;BME280;10381;53.730;10.010;2023-11-19T19:47:18;99237.84;;;8.97;100.00
20444;BME280;10381;53.730;10.010;2023-11-19T19:51:19;99232.75;;;8.95;100.00
20444;BME280;10381;53.730;10.010;2023-11-19T19:55:20;99226.50;;;9.05;100.00
20444;BME280;10381;53.730;10.010;2023-11-19T19:59:21;99236.56;;;9.09;100.00
20444;BME280;10381;53.730;10.010;2023-11-19T20:03:22;99231.78;;;9.13;100.00
20444;BME280;10381;53.730;10.010;2023-11-19T20:07:22;99228.97;;;9.14;100.00
20444;BME280;10381;53.730;10.010;2023-11-19T20:11:23;99215.75;;;9.14;100.00
20444;BME280;10381;53.730;10.010;2023-11-19T20:15:24;99214.25;;;9.20;100.00
20444;BME280;10381;53.730;10.010;2023-11-19T20:19:25;99199.56;;;9.17;100.00
20444;BME280;10381;53.730;10.010;2023-11-19T20:23:25;99191.31;;;9.21;100.00
20444;BME280;10381;53.730;10.010;2023-11-19T20:27:25;99189.66;;;9.28;100.00
20444;BME280;10381;53.730;10.010;2023-11-19T20:31:25;99191.47;;;9.27;100.00
20444;BME280;10381;53.730;10.010;2023-11-19T20:35:26;99196.91;;;9.26;100.00
20444;BME280;10381;53.730;10.010;2023-11-19T20:39:26;99195.13;;;9.26;100.00
20444;BME280;10381;53.730;10.010;2023-11-19T20:43:28;99191.63;;;9.26;100.00
20444;BME280;10381;53.730;10.010;2023-11-19T20:47:29;99195.75;;;9.28;100.00
20444;BME280;10381;53.730;10.010;2023-11-19T20:51:29;99199.06;;;9.30;100.00
20444;BME280;10381;53.730;10.010;2023-11-19T20:55:29;99200.53;;;9.33;100.00
20444;BME280;10381;53.730;10.010;2023-11-19T20:59:30;99203.38;;;9.31;100.00
20444;BME280;10381;53.730;10.010;2023-11-19T21:03:30;99190.16;;;9.31;100.00